createdAt,value
2023-02-07T00:01:12.881Z,15.43
2023-02-07T00:03:40.948Z,13.43
2023-02-07T00:06:12.809Z,12.15
2023-02-07T00:08:41.523Z,14.13
2023-02-07T00:11:11.608Z,14.73
2023-02-07T00:13:39.600Z,13.20
2023-02-07T00:16:08.359Z,15.57
2023-02-07T00:18:36.983Z,16.75
2023-02-07T00:21:07.461Z,14.00
2023-02-07T00:23:37.521Z,12.05
2023-02-07T00:26:06.324Z,14.02
2023-02-07T00:28:34.521Z,15.93
2023-02-07T00:31:05.389Z,14.40
2023-02-07T00:33:33.275Z,12.55
2023-02-07T00:36:02.160Z,12.32
2023-02-07T00:38:31.417Z,12.10
2023-02-07T00:41:01.470Z,10.00
2023-02-07T00:43:30.986Z,11.80
2023-02-07T00:45:59.491Z,13.40
2023-02-07T00:48:27.521Z,10.98
2023-02-07T00:50:55.367Z,12.05
2023-02-07T00:53:23.470Z,13.38
2023-02-07T00:55:51.452Z,14.52
2023-02-07T00:58:20.636Z,15.57
2023-02-07T01:00:49.109Z,14.30
2023-02-07T01:03:16.963Z,15.95
2023-02-07T01:05:44.753Z,12.77
2023-02-07T01:08:13.209Z,11.77
2023-02-07T01:10:42.261Z,11.10
2023-02-07T01:13:11.333Z,11.70
2023-02-07T01:15:42.449Z,12.13
2023-02-07T01:18:10.406Z,12.15
2023-02-07T01:20:38.603Z,15.13
2023-02-07T01:23:06.686Z,14.93
2023-02-07T01:25:34.507Z,13.27
2023-02-07T01:28:02.366Z,13.70
2023-02-07T01:30:30.168Z,11.18
2023-02-07T01:32:59.301Z,10.65
2023-02-07T01:35:27.007Z,10.43
2023-02-07T01:37:55.084Z,14.38
2023-02-07T01:40:23.002Z,11.70
2023-02-07T01:42:50.808Z,10.07
2023-02-07T01:45:29.664Z,12.30
2023-02-07T01:48:03.155Z,12.30
2023-02-07T01:50:32.710Z,12.23
2023-02-07T01:53:03.466Z,10.77
2023-02-07T01:55:36.061Z,13.70
2023-02-07T01:58:06.342Z,13.23
2023-02-07T02:00:34.545Z,14.05
2023-02-07T02:03:05.767Z,9.52
2023-02-07T02:05:36.210Z,16.52
2023-02-07T02:08:04.577Z,14.27
2023-02-07T02:10:49.625Z,11.40
2023-02-07T02:13:26.975Z,10.93
2023-02-07T02:16:03.251Z,11.40
2023-02-07T02:18:52.228Z,11.18
2023-02-07T02:21:54.576Z,14.55
2023-02-07T02:24:46.860Z,13.88
2023-02-07T02:27:25.205Z,15.35
2023-02-07T02:30:19.371Z,12.88
2023-02-07T02:33:26.840Z,11.27
2023-02-07T02:36:02.875Z,13.10
2023-02-07T02:38:36.063Z,10.13
2023-02-07T02:41:07.483Z,10.55
2023-02-07T02:43:41.934Z,12.15
2023-02-07T02:46:15.162Z,8.32
2023-02-07T02:48:45.801Z,10.70
2023-02-07T02:51:14.369Z,8.82
2023-02-07T02:53:52.625Z,9.68
2023-02-07T02:56:55.600Z,10.55
2023-02-07T02:59:40.252Z,15.15
2023-02-07T03:02:18.780Z,12.77
2023-02-07T03:05:11.300Z,15.45
2023-02-07T03:07:56.085Z,11.88
2023-02-07T03:10:32.293Z,12.45
2023-02-07T03:13:09.788Z,13.63
2023-02-07T03:15:48.695Z,13.98
2023-02-07T03:18:25.896Z,10.85
2023-02-07T03:21:01.483Z,11.18
2023-02-07T03:23:30.730Z,13.20
2023-02-07T03:26:01.621Z,14.68
2023-02-07T03:28:32.516Z,15.05
2023-02-07T03:31:03.942Z,11.45
2023-02-07T03:33:32.474Z,11.05
2023-02-07T03:36:10.597Z,13.70
2023-02-07T03:38:39.630Z,14.30
2023-02-07T03:41:12.427Z,12.40
2023-02-07T03:43:42.121Z,12.75
2023-02-07T03:46:10.792Z,11.45
2023-02-07T03:48:38.609Z,13.45
2023-02-07T03:51:08.008Z,15.07
2023-02-07T03:53:35.729Z,11.85
2023-02-07T03:56:03.439Z,15.25
2023-02-07T03:58:31.124Z,15.80
2023-02-07T04:00:58.936Z,16.73
2023-02-07T04:03:26.809Z,12.48
2023-02-07T04:05:54.584Z,14.10
2023-02-07T04:08:23.744Z,14.88
2023-02-07T04:10:58.502Z,14.00
2023-02-07T04:13:26.471Z,14.27
2023-02-07T04:15:54.310Z,15.27
2023-02-07T04:18:22.130Z,14.50
2023-02-07T04:20:49.868Z,17.20
2023-02-07T04:23:17.736Z,12.77
2023-02-07T04:25:46.864Z,15.13
2023-02-07T04:28:15.672Z,12.27
2023-02-07T04:30:43.446Z,14.32
2023-02-07T04:33:11.147Z,14.65
2023-02-07T04:35:39.074Z,14.40
2023-02-07T04:38:07.040Z,15.57
2023-02-07T04:40:34.996Z,18.17
2023-02-07T04:43:04.130Z,16.95
2023-02-07T04:45:31.917Z,14.38
2023-02-07T04:47:59.649Z,14.88
2023-02-07T04:50:27.368Z,13.93
2023-02-07T04:52:55.129Z,16.58
2023-02-07T04:55:23.488Z,12.38
2023-02-07T04:57:51.341Z,9.90
2023-02-07T05:00:20.896Z,11.65
2023-02-07T05:02:48.580Z,17.02
2023-02-07T05:05:16.562Z,14.43
2023-02-07T05:07:44.391Z,16.13
2023-02-07T05:10:12.149Z,14.35
2023-02-07T05:12:39.928Z,12.55
2023-02-07T05:15:08.074Z,15.60
2023-02-07T05:17:38.564Z,11.45
2023-02-07T05:20:07.399Z,13.00
2023-02-07T05:22:35.200Z,13.50
2023-02-07T05:25:02.982Z,15.38
2023-02-07T05:27:30.756Z,12.68
2023-02-07T05:29:59.369Z,12.65
2023-02-07T05:32:44.863Z,13.18
2023-02-07T05:35:13.987Z,14.45
2023-02-07T05:37:41.737Z,13.27
2023-02-07T05:40:10.447Z,10.38
2023-02-07T05:42:38.172Z,10.15
2023-02-07T05:45:07.247Z,9.98
2023-02-07T05:47:34.979Z,10.95
2023-02-07T05:50:02.804Z,9.25
2023-02-07T05:52:34.031Z,10.15
2023-02-07T05:55:03.163Z,10.63
2023-02-07T05:57:31.334Z,12.88
2023-02-07T05:59:59.132Z,11.68
2023-02-07T06:02:27.305Z,10.27
2023-02-07T06:04:55.108Z,10.07
2023-02-07T06:07:23.810Z,12.18
2023-02-07T06:09:53.066Z,12.07
2023-02-07T06:12:20.807Z,11.80
2023-02-07T06:14:48.531Z,10.93
2023-02-07T06:17:16.245Z,10.68
2023-02-07T06:19:44.039Z,10.40
2023-02-07T06:22:11.916Z,13.40
2023-02-07T06:24:39.695Z,12.07
2023-02-07T06:27:08.873Z,11.55
2023-02-07T06:29:36.675Z,8.60
2023-02-07T06:32:06.140Z,9.55
2023-02-07T06:34:33.867Z,11.07
2023-02-07T06:37:01.681Z,12.18
2023-02-07T06:39:29.408Z,10.43
2023-02-07T06:41:57.140Z,12.90
2023-02-07T06:44:26.216Z,11.75
2023-02-07T06:46:54.016Z,9.48
2023-02-07T06:49:21.740Z,11.70
2023-02-07T06:51:49.427Z,10.60
2023-02-07T06:54:17.182Z,12.57
2023-02-07T06:56:44.938Z,11.93
2023-02-07T06:59:12.619Z,9.77
2023-02-07T07:01:42.087Z,11.80
2023-02-07T07:04:10.173Z,10.63
2023-02-07T07:06:38.015Z,11.93
2023-02-07T07:09:06.492Z,11.85
2023-02-07T07:11:34.238Z,12.88
2023-02-07T07:14:02.664Z,11.88
2023-02-07T07:16:30.339Z,12.07
2023-02-07T07:18:59.404Z,10.82
2023-02-07T07:21:28.011Z,14.10
2023-02-07T07:23:56.513Z,11.18
2023-02-07T07:26:24.169Z,13.60
2023-02-07T07:28:51.921Z,10.32
2023-02-07T07:31:19.654Z,10.35
2023-02-07T07:33:47.335Z,9.63
2023-02-07T07:36:16.403Z,10.55
2023-02-07T07:38:46.096Z,8.57
2023-02-07T07:41:15.622Z,11.85
2023-02-07T07:43:43.312Z,11.52
2023-02-07T07:46:11.241Z,14.80
2023-02-07T07:48:39.045Z,14.90
2023-02-07T07:51:07.134Z,14.10
2023-02-07T07:53:36.174Z,12.45
2023-02-07T07:56:04.500Z,11.48
2023-02-07T07:58:32.488Z,9.90
2023-02-07T08:01:00.250Z,11.85
2023-02-07T08:03:28.180Z,13.48
2023-02-07T08:05:55.969Z,13.50
2023-02-07T08:08:23.693Z,13.88
2023-02-07T08:10:52.952Z,9.65
2023-02-07T08:13:21.462Z,12.73
2023-02-07T08:15:49.224Z,13.05
2023-02-07T08:18:16.975Z,15.55
2023-02-07T08:20:44.657Z,14.40
2023-02-07T08:23:12.548Z,10.10
2023-02-07T08:25:40.279Z,10.35
2023-02-07T08:28:09.673Z,14.20
2023-02-07T08:30:37.975Z,13.73
2023-02-07T08:33:05.922Z,13.00
2023-02-07T08:35:33.691Z,13.60
2023-02-07T08:38:01.390Z,12.77
2023-02-07T08:40:29.825Z,13.20
2023-02-07T08:42:57.609Z,14.38
2023-02-07T08:45:26.842Z,16.60
2023-02-07T08:47:54.618Z,13.65
2023-02-07T08:50:22.518Z,11.90
2023-02-07T08:52:50.287Z,16.05
2023-02-07T08:55:18.049Z,13.35
2023-02-07T08:57:45.788Z,15.50
2023-02-07T09:00:14.396Z,15.63
2023-02-07T09:02:43.794Z,17.45
2023-02-07T09:05:12.033Z,16.60
2023-02-07T09:07:39.922Z,15.60
2023-02-07T09:10:10.654Z,13.88
2023-02-07T09:12:38.765Z,18.58
2023-02-07T09:15:07.265Z,15.52
2023-02-07T09:17:35.050Z,14.40
2023-02-07T09:20:04.717Z,15.20
2023-02-07T09:22:33.086Z,16.88
2023-02-07T09:25:00.841Z,13.32
2023-02-07T09:27:28.557Z,14.88
2023-02-07T09:29:56.375Z,13.25
2023-02-07T09:32:24.060Z,13.20
2023-02-07T09:34:52.339Z,13.98
2023-02-07T09:37:21.423Z,14.82
2023-02-07T09:39:49.270Z,12.38
2023-02-07T09:42:28.969Z,13.98
2023-02-07T09:45:02.170Z,14.40
2023-02-07T09:47:32.534Z,13.77
2023-02-07T09:50:03.743Z,13.85
2023-02-07T09:52:39.212Z,13.85
2023-02-07T09:55:16.271Z,14.27
2023-02-07T09:57:48.472Z,9.80
2023-02-07T10:00:23.274Z,10.68
2023-02-07T10:02:58.028Z,11.05
2023-02-07T10:05:30.780Z,9.55
2023-02-07T10:07:59.879Z,10.40
2023-02-07T10:10:35.705Z,7.88
2023-02-07T10:13:17.283Z,8.88
2023-02-07T10:15:58.002Z,8.57
2023-02-07T10:18:45.096Z,11.15
2023-02-07T10:21:21.364Z,10.35
2023-02-07T10:24:06.270Z,9.05
2023-02-07T10:26:38.611Z,8.88
2023-02-07T10:29:19.298Z,12.20
2023-02-07T10:31:52.093Z,10.90
2023-02-07T10:34:23.191Z,11.10
2023-02-07T10:36:53.266Z,8.77
2023-02-07T10:39:29.241Z,8.95
2023-02-07T10:41:57.699Z,9.55
2023-02-07T10:44:28.604Z,10.70
2023-02-07T10:47:00.932Z,10.07
2023-02-07T10:49:31.392Z,11.98
2023-02-07T10:52:02.629Z,9.35
2023-02-07T10:54:51.218Z,9.88
2023-02-07T10:57:20.814Z,9.75
2023-02-07T10:59:50.375Z,11.55
2023-02-07T11:02:39.604Z,8.82
2023-02-07T11:05:29.203Z,8.10
2023-02-07T11:07:59.289Z,7.00
2023-02-07T11:10:32.177Z,8.43
2023-02-07T11:13:01.727Z,7.57
2023-02-07T11:15:37.329Z,6.93
2023-02-07T11:18:06.452Z,6.35
2023-02-07T11:20:37.702Z,7.65
2023-02-07T11:23:09.170Z,7.68
2023-02-07T11:25:41.022Z,7.10
2023-02-07T11:28:17.225Z,7.55
2023-02-07T11:30:45.340Z,6.25
2023-02-07T11:33:20.166Z,6.03
2023-02-07T11:36:12.287Z,4.70
2023-02-07T11:38:43.009Z,6.70
2023-02-07T11:41:24.559Z,7.50
2023-02-07T11:43:57.463Z,6.18
2023-02-07T11:46:38.323Z,4.65
2023-02-07T11:49:11.301Z,4.50
2023-02-07T11:51:39.043Z,4.75
2023-02-07T11:54:08.332Z,4.78
2023-02-07T11:56:41.374Z,4.50
2023-02-07T11:59:16.257Z,4.45
2023-02-07T12:01:45.745Z,4.03
2023-02-07T12:04:18.462Z,4.80
2023-02-07T12:06:53.495Z,4.45
2023-02-07T12:09:34.925Z,4.90
2023-02-07T12:12:08.738Z,4.38
2023-02-07T12:14:40.204Z,4.88
2023-02-07T12:17:15.681Z,4.07
2023-02-07T12:19:53.084Z,3.25
2023-02-07T12:22:24.662Z,3.00
2023-02-07T12:24:57.751Z,3.42
2023-02-07T12:27:33.009Z,3.50
2023-02-07T12:30:05.791Z,4.00
2023-02-07T12:32:43.472Z,3.50
2023-02-07T12:35:18.256Z,3.55
2023-02-07T12:37:51.909Z,3.20
2023-02-07T12:40:29.212Z,3.33
2023-02-07T12:43:03.614Z,3.15
2023-02-07T12:45:51.410Z,3.22
2023-02-07T12:48:32.646Z,3.15
2023-02-07T12:51:12.806Z,3.40
2023-02-07T12:53:56.362Z,3.20
2023-02-07T12:56:37.684Z,2.80
2023-02-07T12:59:15.137Z,3.70
2023-02-07T13:01:47.483Z,3.15
2023-02-07T13:05:02.929Z,2.95
2023-02-07T13:07:48.407Z,6.68
2023-02-07T13:10:36.406Z,6.78
2023-02-07T13:13:13.864Z,7.05
2023-02-07T13:15:52.115Z,7.25
2023-02-07T13:18:26.931Z,7.15
2023-02-07T13:21:02.333Z,7.10
2023-02-07T13:23:33.779Z,7.28
2023-02-07T13:26:06.754Z,7.03
2023-02-07T13:28:43.274Z,6.03
2023-02-07T13:31:17.065Z,6.30
2023-02-07T13:33:45.885Z,6.40
2023-02-07T13:36:20.531Z,8.00
2023-02-07T13:39:00.840Z,6.07
2023-02-07T13:41:36.465Z,5.30
2023-02-07T13:44:10.564Z,6.87
2023-02-07T13:46:56.264Z,5.53
2023-02-07T13:49:37.230Z,5.70
2023-02-07T13:52:11.665Z,5.03
2023-02-07T13:54:45.877Z,6.93
2023-02-07T13:57:39.426Z,5.75
2023-02-07T14:00:17.668Z,6.18
2023-02-07T14:02:52.520Z,6.60
2023-02-07T14:05:23.921Z,6.32
2023-02-07T14:07:57.669Z,7.20
2023-02-07T14:10:45.838Z,7.13
2023-02-07T14:13:32.643Z,7.93
2023-02-07T14:16:07.276Z,7.00
2023-02-07T14:18:42.302Z,7.70
2023-02-07T14:21:38.663Z,7.22
2023-02-07T14:24:20.740Z,7.97
2023-02-07T14:27:26.143Z,6.65
2023-02-07T14:29:56.412Z,9.23
2023-02-07T14:32:32.802Z,7.10
2023-02-07T14:35:07.578Z,7.68
2023-02-07T14:37:46.306Z,8.63
2023-02-07T14:40:21.319Z,8.13
2023-02-07T14:43:01.598Z,8.18
2023-02-07T14:45:31.734Z,7.90
2023-02-07T14:47:59.774Z,7.47
2023-02-07T14:50:33.436Z,8.65
2023-02-07T14:53:04.405Z,7.47
2023-02-07T14:55:35.973Z,8.07
2023-02-07T14:58:08.429Z,8.57
2023-02-07T15:00:41.036Z,8.57
2023-02-07T15:03:13.639Z,8.90
2023-02-07T15:05:51.165Z,8.63
2023-02-07T15:08:21.624Z,8.05
2023-02-07T15:10:55.937Z,9.07
2023-02-07T15:13:27.800Z,7.55
2023-02-07T15:15:59.635Z,7.93
2023-02-07T15:18:31.597Z,8.65
2023-02-07T15:21:01.293Z,8.20
2023-02-07T15:23:31.646Z,8.40
2023-02-07T15:26:02.836Z,6.80
2023-02-07T15:28:32.887Z,6.93
2023-02-07T15:31:04.756Z,9.10
2023-02-07T15:33:36.809Z,8.95
2023-02-07T15:36:26.634Z,9.13
2023-02-07T15:38:54.893Z,8.80
2023-02-07T15:41:22.666Z,10.38
2023-02-07T15:43:57.970Z,10.43
2023-02-07T15:46:25.991Z,9.30
2023-02-07T15:48:55.547Z,10.93
2023-02-07T15:51:27.858Z,8.15
2023-02-07T15:53:59.672Z,9.82
2023-02-07T15:56:30.546Z,9.23
2023-02-07T15:59:03.061Z,7.80
2023-02-07T16:01:31.781Z,9.63
2023-02-07T16:03:59.971Z,8.50
2023-02-07T16:06:30.904Z,8.88
2023-02-07T16:09:00.928Z,9.30
2023-02-07T16:11:38.212Z,9.07
2023-02-07T16:14:23.088Z,9.15
2023-02-07T16:16:53.154Z,9.93
2023-02-07T16:19:26.078Z,11.32
2023-02-07T16:22:03.057Z,13.93
2023-02-07T16:24:33.972Z,15.15
2023-02-07T16:27:02.232Z,10.85
2023-02-07T16:29:29.929Z,10.90
2023-02-07T16:31:58.009Z,11.18
2023-02-07T16:34:25.814Z,9.77
2023-02-07T16:36:56.247Z,8.07
2023-02-07T16:39:24.256Z,9.13
2023-02-07T16:41:55.766Z,9.48
2023-02-07T16:44:25.360Z,12.13
2023-02-07T16:46:53.386Z,12.10
2023-02-07T16:49:22.411Z,11.20
2023-02-07T16:51:50.106Z,10.68
2023-02-07T16:54:19.126Z,9.60
2023-02-07T16:56:49.917Z,12.82
2023-02-07T16:59:19.435Z,9.00
2023-02-07T17:01:47.788Z,10.93
2023-02-07T17:04:15.916Z,10.88
2023-02-07T17:06:45.222Z,10.77
2023-02-07T17:09:15.731Z,11.98
2023-02-07T17:11:45.312Z,14.23
2023-02-07T17:14:13.088Z,11.63
2023-02-07T17:16:41.015Z,10.98
2023-02-07T17:19:13.044Z,9.45
2023-02-07T17:21:41.931Z,13.15
2023-02-07T17:24:09.961Z,15.25
2023-02-07T17:26:38.680Z,12.73
2023-02-07T17:29:08.088Z,14.20
2023-02-07T17:31:35.765Z,12.35
2023-02-07T17:34:03.499Z,12.95
2023-02-07T17:36:31.271Z,13.70
2023-02-07T17:39:00.108Z,11.68
2023-02-07T17:41:27.982Z,12.27
2023-02-07T17:43:55.715Z,15.90
2023-02-07T17:46:26.748Z,16.90
2023-02-07T17:48:55.671Z,15.45
2023-02-07T17:51:26.042Z,15.07
2023-02-07T17:53:54.374Z,13.68
2023-02-07T17:56:25.213Z,11.63
2023-02-07T17:58:54.137Z,13.43
2023-02-07T18:01:21.985Z,19.60
2023-02-07T18:03:53.447Z,15.63
2023-02-07T18:06:23.901Z,16.90
2023-02-07T18:08:51.647Z,14.20
2023-02-07T18:11:20.074Z,17.90
2023-02-07T18:13:48.990Z,12.45
2023-02-07T18:16:18.967Z,13.18
2023-02-07T18:18:46.797Z,14.38
2023-02-07T18:21:15.995Z,11.45
2023-02-07T18:23:43.847Z,14.82
2023-02-07T18:26:12.608Z,17.98
2023-02-07T18:28:40.330Z,18.40
2023-02-07T18:31:12.032Z,18.75
2023-02-07T18:33:39.813Z,14.90
2023-02-07T18:36:08.900Z,15.30
2023-02-07T18:38:38.214Z,18.08
2023-02-07T18:41:09.871Z,12.65
2023-02-07T18:43:38.437Z,18.92
2023-02-07T18:46:09.820Z,21.88
2023-02-07T18:48:38.451Z,15.85
2023-02-07T18:51:07.448Z,16.05
2023-02-07T18:53:35.607Z,15.55
2023-02-07T18:56:06.367Z,13.57
2023-02-07T18:58:34.632Z,19.00
2023-02-07T19:01:04.918Z,16.83
2023-02-07T19:03:33.124Z,17.23
2023-02-07T19:06:01.778Z,16.45
2023-02-07T19:08:29.587Z,17.35
2023-02-07T19:10:58.722Z,22.50
2023-02-07T19:13:28.520Z,22.65
2023-02-07T19:16:03.240Z,17.08
2023-02-07T19:18:31.165Z,21.08
2023-02-07T19:21:03.820Z,19.00
2023-02-07T19:23:31.716Z,18.58
2023-02-07T19:25:59.381Z,22.88
2023-02-07T19:28:28.789Z,22.92
2023-02-07T19:30:56.576Z,23.77
2023-02-07T19:33:24.512Z,18.88
2023-02-07T19:35:52.269Z,21.08
2023-02-07T19:38:20.038Z,15.82
2023-02-07T19:40:56.218Z,19.13
2023-02-07T19:43:24.172Z,18.60
2023-02-07T19:45:54.031Z,19.65
2023-02-07T19:48:22.695Z,20.55
2023-02-07T19:50:58.871Z,21.77
2023-02-07T19:53:27.135Z,26.33
2023-02-07T19:55:55.384Z,24.08
2023-02-07T19:58:23.202Z,23.88
2023-02-07T20:00:50.980Z,22.45
2023-02-07T20:03:20.042Z,20.95
2023-02-07T20:05:47.739Z,21.52
2023-02-07T20:08:15.503Z,23.23
2023-02-07T20:10:43.552Z,21.65
2023-02-07T20:13:11.653Z,22.42
2023-02-07T20:15:40.628Z,19.85
2023-02-07T20:18:08.557Z,20.65
2023-02-07T20:20:41.804Z,18.55
2023-02-07T20:23:10.375Z,24.38
2023-02-07T20:25:38.922Z,21.73
2023-02-07T20:28:08.797Z,18.65
2023-02-07T20:30:37.589Z,22.35
2023-02-07T20:33:05.512Z,21.75
2023-02-07T20:35:33.184Z,22.80
2023-02-07T20:38:02.635Z,21.05
2023-02-07T20:40:30.682Z,24.08
2023-02-07T20:42:58.377Z,20.90
2023-02-07T20:45:26.047Z,22.67
2023-02-07T20:47:53.780Z,18.48
2023-02-07T20:50:21.710Z,23.85
2023-02-07T20:52:49.449Z,19.58
2023-02-07T20:55:18.631Z,23.33
2023-02-07T20:57:46.425Z,30.92
2023-02-07T21:00:15.506Z,23.45
2023-02-07T21:02:43.347Z,24.40
2023-02-07T21:05:11.094Z,23.60
2023-02-07T21:07:38.917Z,18.27
2023-02-07T21:10:07.456Z,22.85
2023-02-07T21:12:36.509Z,21.38
2023-02-07T21:15:04.479Z,24.35
2023-02-07T21:17:32.143Z,21.80
2023-02-07T21:19:59.862Z,24.98
2023-02-07T21:22:28.456Z,24.27
2023-02-07T21:24:56.219Z,20.30
2023-02-07T21:27:23.985Z,20.15
2023-02-07T21:29:53.085Z,19.85
2023-02-07T21:32:20.805Z,19.60
2023-02-07T21:34:48.717Z,22.48
2023-02-07T21:37:16.488Z,21.27
2023-02-07T21:39:44.263Z,20.17
2023-02-07T21:42:12.101Z,18.48
2023-02-07T21:44:39.930Z,21.33
2023-02-07T21:47:08.959Z,21.67
2023-02-07T21:49:36.782Z,18.33
2023-02-07T21:52:04.634Z,21.08
2023-02-07T21:54:32.413Z,21.23
2023-02-07T21:57:00.100Z,22.30
2023-02-07T21:59:27.954Z,17.98
2023-02-07T22:01:55.629Z,20.60
2023-02-07T22:04:24.877Z,23.30
2023-02-07T22:06:52.550Z,21.15
2023-02-07T22:09:21.903Z,20.20
2023-02-07T22:11:50.406Z,20.25
2023-02-07T22:14:18.574Z,23.88
2023-02-07T22:16:46.503Z,18.48
2023-02-07T22:19:17.065Z,21.65
2023-02-07T22:21:47.605Z,19.17
2023-02-07T22:24:17.867Z,19.58
2023-02-07T22:26:46.421Z,18.17
2023-02-07T22:29:14.813Z,18.38
2023-02-07T22:31:42.973Z,21.33
2023-02-07T22:34:13.965Z,23.50
2023-02-07T22:36:43.986Z,15.40
2023-02-07T22:39:14.107Z,20.15
2023-02-07T22:41:41.995Z,18.33
2023-02-07T22:44:09.740Z,19.10
2023-02-07T22:46:37.554Z,17.65
2023-02-07T22:49:05.337Z,16.02
2023-02-07T22:51:36.283Z,19.80
2023-02-07T22:54:07.085Z,20.00
2023-02-07T22:56:38.539Z,19.13
2023-02-07T22:59:07.061Z,20.55
2023-02-07T23:01:37.008Z,21.67
2023-02-07T23:04:06.101Z,21.15
2023-02-07T23:06:34.269Z,20.30
2023-02-07T23:09:02.048Z,19.67
2023-02-07T23:11:29.808Z,25.77
2023-02-07T23:13:58.848Z,25.15
2023-02-07T23:16:28.266Z,23.00
2023-02-07T23:18:58.164Z,24.33
2023-02-07T23:21:27.977Z,23.67
2023-02-07T23:23:58.524Z,18.95
2023-02-07T23:26:27.976Z,18.52
2023-02-07T23:28:55.994Z,18.90
2023-02-07T23:31:26.488Z,23.77
2023-02-07T23:33:54.632Z,22.55
2023-02-07T23:36:22.917Z,17.35
2023-02-07T23:38:51.723Z,21.85
2023-02-07T23:41:19.971Z,21.02
2023-02-07T23:43:47.721Z,22.45
2023-02-07T23:46:17.078Z,15.68
2023-02-07T23:48:46.320Z,19.60
2023-02-07T23:51:15.212Z,12.90
2023-02-07T23:53:43.828Z,14.13
2023-02-07T23:56:15.297Z,21.38
2023-02-07T23:58:44.794Z,17.92
